Time;durP1;ratioP1;P1;durP2;ratioP2;P2;SDS_P1;SDS_P2;PMS_P1;PMS_P2;Temp;Humidity;BMP_temperature;BMP_pressure;BME280_temperature;BME280_humidity;BME280_pressure;Samples;Min_cycle;Max_cycle;Signal;HPM_P1;HPM_P2
2022/12/14 00:01:46;;;;;;;14.75;9.98;;;;;;;-2.63;82.88;99285.55;1762425;78;21135;-79
2022/12/14 00:04:13;;;;;;;15.03;10.45;;;;;;;-2.61;83.13;99283.69;1780230;79;21302;-76
2022/12/14 00:06:39;;;;;;;13.90;10.35;;;;;;;-2.62;83.10;99291.11;1783084;79;21039;-75
2022/12/14 00:09:06;;;;;;;13.32;10.35;;;;;;;-2.59;82.98;99290.92;1760963;79;20978;-77
2022/12/14 00:11:33;;;;;;;15.98;11.20;;;;;;;-2.64;83.03;99298.64;1768253;80;21049;-77
2022/12/14 00:14:01;;;;;;;14.33;9.80;;;;;;;-2.64;82.96;99298.17;1818874;78;21508;-74
2022/12/14 00:16:31;;;;;;;15.85;10.88;;;;;;;-2.67;83.06;99299.65;1750471;81;21144;-79
2022/12/14 00:18:59;;;;;;;15.50;10.50;;;;;;;-2.66;83.24;99303.11;1737738;80;21174;-75
2022/12/14 00:21:26;;;;;;;15.58;10.13;;;;;;;-2.65;83.54;99306.06;1768101;79;21123;-76
2022/12/14 00:23:52;;;;;;;15.28;11.12;;;;;;;-2.63;83.50;99309.40;1776602;79;21104;-76
2022/12/14 00:26:24;;;;;;;15.08;9.93;;;;;;;-2.59;83.38;99306.53;1791873;78;21623;-75
2022/12/14 00:28:52;;;;;;;17.75;11.35;;;;;;;-2.58;83.61;99309.96;1781208;78;21131;-80
2022/12/14 00:31:19;;;;;;;14.07;10.05;;;;;;;-2.54;83.37;99308.01;1780636;78;21014;-78
2022/12/14 00:33:46;;;;;;;14.05;10.35;;;;;;;-2.53;83.11;99314.86;1768100;80;21052;-76
2022/12/14 00:36:13;;;;;;;16.12;10.05;;;;;;;-2.57;83.14;99316.38;1762922;79;20915;-75
2022/12/14 00:38:40;;;;;;;15.18;9.88;;;;;;;-2.57;83.14;99311.17;1768119;79;21109;-77
2022/12/14 00:41:06;;;;;;;15.40;10.93;;;;;;;-2.58;83.23;99312.09;1776139;80;21241;-76
2022/12/14 00:43:33;;;;;;;14.15;9.85;;;;;;;-2.55;83.35;99321.45;1769203;79;21052;-78
2022/12/14 00:46:00;;;;;;;13.38;10.08;;;;;;;-2.57;83.29;99320.72;1774853;79;21147;-78
2022/12/14 00:48:27;;;;;;;11.48;9.15;;;;;;;-2.53;83.36;99320.92;1777160;79;21039;-78
2022/12/14 00:50:54;;;;;;;13.60;9.53;;;;;;;-2.52;83.27;99324.35;1777337;79;21024;-76
2022/12/14 00:53:21;;;;;;;11.68;8.88;;;;;;;-2.53;83.30;99330.47;1798394;78;21516;-77
2022/12/14 00:55:48;;;;;;;11.95;9.33;;;;;;;-2.50;83.48;99336.80;1790860;79;21026;-76
2022/12/14 00:58:17;;;;;;;13.68;9.55;;;;;;;-2.50;83.81;99335.50;1807168;78;21540;-78
2022/12/14 01:00:44;;;;;;;11.05;8.38;;;;;;;-2.46;83.35;99334.38;1784973;80;21037;-77
2022/12/14 01:03:11;;;;;;;13.62;9.60;;;;;;;-2.49;83.36;99345.81;1779778;79;21551;-75
2022/12/14 01:05:38;;;;;;;14.53;9.23;;;;;;;-2.49;83.59;99342.35;1793827;78;21603;-77
2022/12/14 01:08:06;;;;;;;11.15;9.10;;;;;;;-2.45;83.64;99343.86;1798759;78;21187;-79
2022/12/14 01:10:33;;;;;;;11.83;8.90;;;;;;;-2.48;83.85;99346.64;1782350;78;21502;-78
2022/12/14 01:13:00;;;;;;;11.65;8.60;;;;;;;-2.47;83.96;99345.69;1803830;78;21033;-82
2022/12/14 01:15:27;;;;;;;11.97;9.00;;;;;;;-2.47;84.05;99343.09;1747747;80;21028;-81
2022/12/14 01:17:54;;;;;;;13.32;9.73;;;;;;;-2.48;84.18;99342.27;1771553;79;21209;-79
2022/12/14 01:20:21;;;;;;;13.00;8.55;;;;;;;-2.44;84.47;99335.94;1765436;79;21013;-79
2022/12/14 01:22:54;;;;;;;13.53;9.18;;;;;;;-2.39;84.94;99344.30;1757971;80;21040;-78
2022/12/14 01:25:21;;;;;;;12.20;9.30;;;;;;;-2.31;84.47;99338.62;1758083;79;26597;-80
2022/12/14 01:27:48;;;;;;;12.70;9.75;;;;;;;-2.30;84.17;99342.91;1757808;80;21054;-80
2022/12/14 01:30:17;;;;;;;12.33;9.55;;;;;;;-2.27;84.20;99344.00;1794876;78;21523;-79
2022/12/14 01:32:44;;;;;;;13.38;9.28;;;;;;;-2.25;84.31;99351.23;1804616;78;20993;-77
2022/12/14 01:35:10;;;;;;;13.68;9.40;;;;;;;-2.24;84.30;99351.63;1767799;80;21033;-76
2022/12/14 01:37:38;;;;;;;11.97;9.23;;;;;;;-2.21;84.15;99368.80;1766646;78;20956;-83
2022/12/14 01:40:05;;;;;;;13.35;9.55;;;;;;;-2.27;84.57;99359.61;1762087;80;21000;-80
2022/12/14 01:42:35;;;;;;;11.90;8.55;;;;;;;-2.29;84.85;99358.88;1756624;80;21880;-78
2022/12/14 01:45:01;;;;;;;12.23;8.23;;;;;;;-2.32;84.67;99359.05;1757032;79;21545;-78
2022/12/14 01:47:35;;;;;;;9.33;7.15;;;;;;;-2.40;84.79;99362.60;1766808;79;21028;-78
2022/12/14 01:50:25;;;;;;;8.18;5.80;;;;;;;-2.46;84.90;99365.59;1780917;79;21119;-80
2022/12/14 01:52:55;;;;;;;7.55;5.90;;;;;;;-2.52;84.46;99372.47;1772928;79;21036;-81
2022/12/14 01:55:35;;;;;;;6.40;4.37;;;;;;;-2.64;84.49;99368.39;1776250;79;21158;-75
2022/12/14 01:58:11;;;;;;;7.70;4.80;;;;;;;-2.64;84.45;99363.66;1772591;79;21158;-78
2022/12/14 02:00:37;;;;;;;7.60;5.62;;;;;;;-2.66;83.62;99362.92;1778388;79;21080;-77
2022/12/14 02:03:15;;;;;;;8.10;5.87;;;;;;;-2.68;83.14;99372.58;1790092;78;21100;-76
2022/12/14 02:05:46;;;;;;;7.50;5.75;;;;;;;-2.68;82.90;99374.70;1826347;78;21350;-77
2022/12/14 02:08:12;;;;;;;8.10;5.97;;;;;;;-2.70;82.71;99371.37;1788924;80;21505;-75
2022/12/14 02:10:39;;;;;;;8.20;5.90;;;;;;;-2.70;82.31;99373.97;1789022;79;21031;-75
2022/12/14 02:13:13;;;;;;;8.18;6.08;;;;;;;-2.77;82.07;99378.69;1758639;79;21004;-74
2022/12/14 02:15:40;;;;;;;8.10;6.17;;;;;;;-2.75;82.10;99386.88;1760749;79;21060;-76
2022/12/14 02:18:11;;;;;;;10.08;6.83;;;;;;;-2.79;81.80;99383.61;1781496;79;21030;-75
2022/12/14 02:20:49;;;;;;;10.95;6.62;;;;;;;-2.75;81.69;99389.47;1765896;79;21229;-77
2022/12/14 02:24:04;;;;;;;10.18;7.55;;;;;;;-2.78;81.72;99394.41;1753846;79;21554;-76
2022/12/14 02:26:49;;;;;;;9.58;6.67;;;;;;;-2.78;81.88;99402.20;1821757;78;21061;-76
2022/12/14 02:29:45;;;;;;;8.25;6.28;;;;;;;-2.79;82.11;99398.74;1745919;80;21110;-76
2022/12/14 02:32:23;;;;;;;10.40;6.58;;;;;;;-2.76;82.09;99406.84;1771640;78;21035;-77
2022/12/14 02:35:16;;;;;;;8.25;6.25;;;;;;;-2.75;81.79;99415.47;1765896;80;21175;-76
2022/12/14 02:37:48;;;;;;;10.25;6.60;;;;;;;-2.79;81.71;99419.55;1783751;79;21017;-78
2022/12/14 02:40:53;;;;;;;9.98;6.30;;;;;;;-2.79;81.92;99420.02;1772069;80;21495;-82
2022/12/14 02:43:50;;;;;;;8.85;6.55;;;;;;;-2.78;81.87;99419.10;1774930;78;21005;-79
2022/12/14 02:46:28;;;;;;;7.12;5.75;;;;;;;-2.79;81.67;99426.52;1765194;78;20992;-79
2022/12/14 02:49:12;;;;;;;7.62;5.62;;;;;;;-2.79;80.87;99426.52;1791369;78;22378;-78
2022/12/14 02:51:53;;;;;;;9.08;6.28;;;;;;;-2.85;80.70;99422.52;1796902;78;21033;-78
2022/12/14 02:54:43;;;;;;;7.45;6.00;;;;;;;-2.90;80.75;99425.84;1771603;79;21012;-80
2022/12/14 02:57:26;;;;;;;8.20;5.70;;;;;;;-2.90;80.86;99423.70;1751953;79;21077;-81
2022/12/14 02:59:55;;;;;;;7.60;6.15;;;;;;;-2.97;80.86;99426.67;1729276;80;20993;-77
2022/12/14 03:02:22;;;;;;;7.45;5.65;;;;;;;-2.95;81.04;99433.09;1764633;79;21257;-75
2022/12/14 03:04:49;;;;;;;10.82;6.83;;;;;;;-2.95;81.15;99440.06;1779501;79;21005;-76
2022/12/14 03:07:48;;;;;;;8.60;6.58;;;;;;;-2.94;80.82;99439.12;1772328;79;21183;-77
2022/12/14 03:10:45;;;;;;;7.80;5.80;;;;;;;-2.93;81.06;99438.20;1770165;79;21027;-77
2022/12/14 03:13:20;;;;;;;9.63;6.62;;;;;;;-2.92;80.62;99451.56;1771927;79;21088;-79
2022/12/14 03:15:59;;;;;;;9.10;5.87;;;;;;;-2.97;80.49;99446.64;1768048;80;21845;-76
2022/12/14 03:18:27;;;;;;;8.30;5.70;;;;;;;-2.94;80.52;99440.41;1757651;80;21124;-79
2022/12/14 03:20:54;;;;;;;7.47;5.17;;;;;;;-2.96;80.24;99447.00;1767452;80;21012;-78
2022/12/14 03:23:24;;;;;;;10.30;6.47;;;;;;;-2.97;80.04;99450.54;1767827;79;21546;-77
2022/12/14 03:26:16;;;;;;;8.00;6.05;;;;;;;-2.97;80.14;99457.87;1757516;80;21687;-81
2022/12/14 03:29:12;;;;;;;8.75;5.90;;;;;;;-2.97;79.51;99456.56;1767539;79;21138;-81
2022/12/14 03:31:52;;;;;;;9.30;6.15;;;;;;;-2.99;79.43;99457.12;1763515;79;21501;-77
2022/12/14 03:34:21;;;;;;;9.83;6.85;;;;;;;-3.04;79.42;99457.84;1775002;80;21019;-81
2022/12/14 03:36:52;;;;;;;9.40;6.25;;;;;;;-3.05;79.17;99460.52;1768269;79;21088;-77
2022/12/14 03:39:32;;;;;;;10.05;6.62;;;;;;;-3.11;79.06;99462.17;1772462;79;21172;-81
2022/12/14 03:42:23;;;;;;;9.05;6.28;;;;;;;-3.18;78.84;99458.64;1775476;79;21122;-76
2022/12/14 03:45:16;;;;;;;8.40;5.92;;;;;;;-3.24;78.80;99462.06;1777356;79;21018;-78
2022/12/14 03:47:51;;;;;;;8.58;5.80;;;;;;;-3.37;78.84;99460.14;1743540;79;21555;-76
2022/12/14 03:50:32;;;;;;;9.18;6.33;;;;;;;-3.44;79.03;99464.47;1766504;79;20973;-78
2022/12/14 03:53:16;;;;;;;8.93;6.00;;;;;;;-3.49;79.25;99473.00;1767226;79;21514;-77
2022/12/14 03:56:11;;;;;;;8.43;5.62;;;;;;;-3.57;79.41;99469.06;1748183;79;21113;-76
2022/12/14 03:59:15;;;;;;;11.35;7.30;;;;;;;-3.61;79.61;99471.92;1765419;79;21057;-80
2022/12/14 04:01:51;;;;;;;8.75;6.08;;;;;;;-3.61;79.78;99467.56;1771944;79;21018;-78
2022/12/14 04:04:23;;;;;;;10.88;6.50;;;;;;;-3.66;79.64;99472.16;1769432;78;20970;-76
2022/12/14 04:07:04;;;;;;;8.13;6.47;;;;;;;-3.73;79.81;99473.41;1762869;77;21009;-83
2022/12/14 04:09:40;;;;;;;7.50;5.90;;;;;;;-3.74;79.89;99478.24;1751655;79;21806;-77
2022/12/14 04:20:32;;;;;;;8.40;6.00;;;;;;;-3.82;79.75;99490.34;1765497;79;21088;-75
2022/12/14 04:23:03;;;;;;;10.80;6.58;;;;;;;-3.83;79.76;99498.20;1760479;80;21135;-74
2022/12/14 04:31:14;;;;;;;9.68;6.97;;;;;;;-3.94;80.01;99510.48;1765592;79;20986;-76
2022/12/14 04:33:48;;;;;;;10.03;7.17;;;;;;;-3.95;80.13;99521.30;1782623;79;21048;-76
2022/12/14 04:36:29;;;;;;;;;;;;;;;-3.97;80.07;99519.71;1795837;79;21070;-75
2022/12/14 04:39:01;;;;;;;9.65;7.12;;;;;;;-4.02;80.12;99519.97;1782724;79;20193;-74
2022/12/14 04:41:31;;;;;;;10.38;7.45;;;;;;;-4.05;80.24;99529.20;1794465;78;22409;-75
2022/12/14 04:43:59;;;;;;;11.48;7.03;;;;;;;-4.06;80.37;99535.30;1795124;78;21104;-75
2022/12/14 04:46:28;;;;;;;13.10;7.37;;;;;;;-4.09;80.49;99538.06;1768394;79;21509;-74
2022/12/14 04:49:23;;;;;;;12.75;7.12;;;;;;;-4.12;80.54;99545.17;1802619;78;21576;-75
2022/12/14 04:52:06;;;;;;;11.20;7.58;;;;;;;-4.15;80.84;99540.98;1784056;78;21063;-74
2022/12/14 04:55:04;;;;;;;12.90;7.65;;;;;;;-4.12;80.90;99543.41;1789366;79;21599;-75
2022/12/14 04:57:36;;;;;;;11.30;7.37;;;;;;;-4.17;81.05;99538.47;1752342;80;20997;-75
2022/12/14 05:00:05;;;;;;;10.90;6.95;;;;;;;-4.19;81.46;99551.98;1758311;79;21064;-74
2022/12/14 05:03:03;;;;;;;11.75;8.40;;;;;;;-4.21;81.80;99555.11;1754451;78;21974;-75
2022/12/14 05:05:56;;;;;;;12.88;8.68;;;;;;;-4.22;81.94;99556.48;1753619;79;21103;-74
2022/12/14 05:08:31;;;;;;;12.50;8.40;;;;;;;-4.29;82.19;99557.70;1788764;79;21048;-73
2022/12/14 05:11:26;;;;;;;13.25;8.10;;;;;;;-4.27;82.20;99558.03;1781165;79;21315;-76
2022/12/14 05:13:59;;;;;;;11.75;7.53;;;;;;;-4.28;82.05;99566.71;1760673;80;21069;-74
2022/12/14 05:16:26;;;;;;;11.60;7.72;;;;;;;-4.31;81.35;99569.45;1773859;79;22258;-73
2022/12/14 05:18:53;;;;;;;8.80;6.67;;;;;;;-4.28;81.39;99573.66;1776783;79;21558;-75
2022/12/14 05:24:06;;;;;;;10.35;7.37;;;;;;;-4.26;81.14;99572.66;1758887;79;20996;-75
2022/12/14 05:26:33;;;;;;;8.45;6.58;;;;;;;-4.22;80.48;99579.36;1767615;79;21538;-73
2022/12/14 05:28:59;;;;;;;9.38;7.80;;;;;;;-4.24;80.10;99582.50;1778136;79;21785;-74
2022/12/14 05:31:26;;;;;;;12.20;7.60;;;;;;;-4.26;79.86;99593.41;1767309;79;21670;-73
2022/12/14 05:33:53;;;;;;;11.03;7.35;;;;;;;-4.24;79.72;99590.28;1760326;79;21107;-74
2022/12/14 05:36:19;;;;;;;11.95;7.67;;;;;;;-4.26;79.66;99601.19;1772591;79;21087;-74
2022/12/14 05:38:46;;;;;;;8.98;6.42;;;;;;;-4.23;79.10;99604.08;1770625;79;21114;-73
2022/12/14 05:41:13;;;;;;;9.95;7.33;;;;;;;-4.24;78.98;99607.14;1785162;79;21314;-75
2022/12/14 05:43:40;;;;;;;10.58;7.05;;;;;;;-4.26;78.89;99612.86;1771446;79;21071;-75
2022/12/14 05:46:08;;;;;;;10.93;7.55;;;;;;;-4.29;78.78;99607.81;1768533;79;21024;-74
2022/12/14 05:48:35;;;;;;;11.95;8.20;;;;;;;-4.28;78.83;99610.80;1776092;79;21009;-75
2022/12/14 05:51:10;;;;;;;11.18;7.78;;;;;;;-4.31;79.16;99614.84;1774446;79;21111;-74
2022/12/14 05:53:37;;;;;;;11.30;7.92;;;;;;;-4.27;79.15;99620.28;1766964;80;21723;-74
2022/12/14 05:56:06;;;;;;;9.95;7.22;;;;;;;-4.23;78.82;99622.23;1777864;79;21041;-72
2022/12/14 05:58:34;;;;;;;9.58;7.03;;;;;;;-4.27;78.30;99632.39;1781967;79;21045;-73
2022/12/14 06:01:02;;;;;;;10.30;6.60;;;;;;;-4.24;78.61;99633.08;1766912;79;21064;-72
2022/12/14 06:03:29;;;;;;;9.78;7.45;;;;;;;-4.23;78.39;99642.55;1766191;79;21012;-74
2022/12/14 06:06:01;;;;;;;10.90;7.60;;;;;;;-4.20;78.28;99642.84;1762169;79;21094;-75
2022/12/14 06:08:34;;;;;;;11.30;7.75;;;;;;;-4.18;77.79;99650.92;1759899;79;22568;-74
2022/12/14 06:11:10;;;;;;;10.38;7.28;;;;;;;-4.18;77.81;99647.50;1778318;79;21022;-74
2022/12/14 06:13:38;;;;;;;11.00;7.42;;;;;;;-4.20;77.71;99651.45;1783987;79;21059;-76
2022/12/14 06:16:20;;;;;;;8.98;6.70;;;;;;;-4.14;77.91;99650.31;1768701;79;21052;-78
2022/12/14 06:18:56;;;;;;;11.73;8.00;;;;;;;-4.15;77.91;99652.08;1780559;79;21104;-77
2022/12/14 06:21:26;;;;;;;11.93;8.10;;;;;;;-4.07;77.97;99652.16;1770669;80;21125;-78
2022/12/14 06:23:53;;;;;;;12.03;7.83;;;;;;;-4.04;78.08;99658.47;1775193;79;20999;-77
2022/12/14 06:26:20;;;;;;;13.88;9.23;;;;;;;-4.00;77.83;99662.59;1765434;80;21062;-77
2022/12/14 06:28:47;;;;;;;14.15;9.68;;;;;;;-3.99;77.97;99662.98;1762748;79;21155;-78
2022/12/14 06:31:28;;;;;;;16.50;10.63;;;;;;;-3.96;77.60;99666.70;1777277;79;21893;-78
2022/12/14 06:33:58;;;;;;;19.25;11.53;;;;;;;-3.97;77.30;99670.23;1782694;79;21073;-77
2022/12/14 06:36:30;;;;;;;16.40;9.90;;;;;;;-3.96;77.43;99671.89;1766311;79;21112;-75
2022/12/14 06:39:01;;;;;;;13.48;9.48;;;;;;;-3.99;77.62;99673.36;1775540;79;20994;-77
2022/12/14 06:41:28;;;;;;;15.00;9.33;;;;;;;-3.97;77.79;99678.84;1769437;79;21108;-77
2022/12/14 06:43:55;;;;;;;13.08;9.05;;;;;;;-3.97;77.68;99685.80;1783949;79;21143;-77
2022/12/14 06:46:23;;;;;;;16.00;10.08;;;;;;;-3.91;77.53;99686.78;1771714;79;21104;-78
2022/12/14 06:48:51;;;;;;;17.35;10.82;;;;;;;-3.89;77.73;99694.50;1773459;79;21525;-77
2022/12/14 06:51:19;;;;;;;14.13;10.70;;;;;;;-3.85;77.70;99695.55;1773323;79;21048;-77
2022/12/14 06:53:49;;;;;;;15.68;10.45;;;;;;;-3.83;77.86;99704.09;1778827;79;21025;-75
2022/12/14 06:56:16;;;;;;;15.95;10.40;;;;;;;-3.81;77.87;99703.56;1748921;80;21277;-78
2022/12/14 06:58:43;;;;;;;16.87;10.55;;;;;;;-3.73;77.54;99710.13;1751472;79;20990;-76
2022/12/14 07:01:15;;;;;;;14.38;10.38;;;;;;;-3.76;77.45;99721.52;1780954;78;21102;-76
2022/12/14 07:03:42;;;;;;;16.10;10.70;;;;;;;-3.75;77.75;99710.20;1769393;79;21727;-77
2022/12/14 07:06:09;;;;;;;16.97;11.45;;;;;;;-3.79;77.56;99716.47;1772950;79;22288;-78
2022/12/14 07:08:37;;;;;;;15.38;10.78;;;;;;;-3.79;78.01;99715.17;1761137;79;21874;-78
2022/12/14 07:11:07;;;;;;;17.27;11.18;;;;;;;-3.79;78.34;99725.09;1775054;79;20933;-77
2022/12/14 07:13:34;;;;;;;16.87;11.88;;;;;;;-3.74;78.25;99735.73;1772290;79;20975;-78
2022/12/14 07:16:00;;;;;;;16.77;11.65;;;;;;;-3.68;78.23;99736.71;1777813;79;21030;-79
2022/12/14 07:18:27;;;;;;;16.20;11.90;;;;;;;-3.67;77.61;99737.08;1770698;79;21057;-77
2022/12/14 07:21:00;;;;;;;17.77;11.80;;;;;;;-3.66;77.71;99747.85;1775047;78;21473;-77
2022/12/14 07:23:28;;;;;;;15.55;10.88;;;;;;;-3.69;78.07;99743.67;1787696;78;21189;-76
2022/12/14 07:26:02;;;;;;;18.77;12.25;;;;;;;-3.65;77.61;99741.73;1774816;77;21061;-75
2022/12/14 07:28:29;;;;;;;17.30;11.70;;;;;;;-3.65;77.71;99752.98;1772135;79;21732;-76
2022/12/14 07:30:56;;;;;;;17.67;11.18;;;;;;;-3.66;77.29;99753.05;1776039;79;20958;-78
2022/12/14 07:33:23;;;;;;;17.75;11.60;;;;;;;-3.64;77.25;99757.70;1773523;79;21206;-78
2022/12/14 07:35:50;;;;;;;16.87;11.53;;;;;;;-3.66;77.08;99769.92;1783296;79;21147;-79
2022/12/14 07:38:17;;;;;;;17.17;11.18;;;;;;;-3.62;77.14;99763.66;1768807;79;21160;-78
2022/12/14 07:40:44;;;;;;;15.58;11.70;;;;;;;-3.63;77.40;99767.16;1773068;79;21029;-77
2022/12/14 07:43:10;;;;;;;18.07;12.55;;;;;;;-3.60;77.83;99770.91;1772883;79;21055;-79
2022/12/14 07:45:38;;;;;;;15.80;11.80;;;;;;;-3.54;77.28;99776.25;1792650;78;22526;-78
2022/12/14 07:48:06;;;;;;;18.92;10.30;;;;;;;-3.49;77.06;99793.28;1764140;80;20998;-78
2022/12/14 07:50:34;;;;;;;35.35;21.42;;;;;;;-3.51;76.40;99796.42;1803838;78;21021;-79
2022/12/14 07:53:01;;;;;;;30.32;16.45;;;;;;;-3.49;76.63;99784.20;1807672;76;20947;-77
2022/12/14 07:55:28;;;;;;;73.62;36.13;;;;;;;-3.53;76.58;99783.97;1793195;75;20876;-77
2022/12/14 07:57:55;;;;;;;31.23;19.10;;;;;;;-3.52;76.48;99789.53;1795609;79;21190;-77
2022/12/14 08:00:22;;;;;;;32.88;18.85;;;;;;;-3.45;76.45;99788.31;1789667;78;20974;-78
2022/12/14 08:02:48;;;;;;;34.00;18.32;;;;;;;-3.44;76.18;99783.95;1765630;79;21104;-77
2022/12/14 08:05:15;;;;;;;29.67;19.02;;;;;;;-3.36;76.12;99793.05;1782587;78;21027;-77
2022/12/14 08:07:41;;;;;;;27.25;17.00;;;;;;;-3.32;76.06;99794.17;1769190;79;20992;-75
2022/12/14 08:10:09;;;;;;;18.85;12.80;;;;;;;-3.29;76.37;99797.92;1766698;79;21297;-78
2022/12/14 08:12:35;;;;;;;20.95;14.68;;;;;;;-3.29;75.25;99807.84;1768795;80;21609;-79
2022/12/14 08:15:03;;;;;;;20.90;12.98;;;;;;;-3.26;75.23;99804.27;1782772;80;21529;-79
2022/12/14 08:17:31;;;;;;;17.30;12.82;;;;;;;-3.28;74.60;99815.20;1767641;80;21037;-77
2022/12/14 08:19:58;;;;;;;17.23;12.63;;;;;;;-3.26;75.29;99810.77;1774205;80;20908;-76
2022/12/14 08:22:24;;;;;;;19.10;13.30;;;;;;;-3.24;75.08;99807.62;1788816;77;21228;-76
2022/12/14 08:24:51;;;;;;;18.35;12.53;;;;;;;-3.21;75.24;99800.48;1811786;78;20959;-79
2022/12/14 08:27:17;;;;;;;16.62;11.93;;;;;;;-3.11;75.12;99806.52;1822666;78;20958;-77
2022/12/14 08:29:44;;;;;;;17.37;12.47;;;;;;;-3.10;73.97;99818.14;1795576;78;21020;-78
2022/12/14 08:32:10;;;;;;;18.27;12.58;;;;;;;-3.03;74.19;99820.81;1820646;78;21065;-79
2022/12/14 08:34:36;;;;;;;17.87;12.18;;;;;;;-3.01;74.35;99816.38;1809541;78;22043;-79
2022/12/14 08:37:03;;;;;;;19.00;12.95;;;;;;;-2.90;73.93;99817.55;1804557;78;21045;-79
2022/12/14 08:39:29;;;;;;;19.45;13.83;;;;;;;-2.88;73.73;99823.52;1789352;79;21564;-78
2022/12/14 08:41:56;;;;;;;19.77;12.95;;;;;;;-2.78;73.91;99819.53;1780766;79;21027;-78
2022/12/14 08:44:22;;;;;;;23.95;14.23;;;;;;;-2.74;73.78;99824.08;1752316;80;21088;-74
2022/12/14 08:46:49;;;;;;;24.80;13.48;;;;;;;-2.63;74.26;99826.52;1764221;80;22125;-74
2022/12/14 08:49:15;;;;;;;22.07;13.45;;;;;;;-2.55;73.54;99826.07;1781615;79;20982;-75
2022/12/14 08:51:42;;;;;;;18.10;11.55;;;;;;;-2.45;73.11;99823.84;1772005;79;21068;-74
2022/12/14 08:54:08;;;;;;;14.30;10.78;;;;;;;-2.42;72.37;99827.56;1776919;79;21924;-74
2022/12/14 08:56:35;;;;;;;16.23;11.12;;;;;;;-2.38;72.15;99819.95;1763674;79;21010;-74
2022/12/14 08:59:02;;;;;;;14.73;11.20;;;;;;;-2.39;71.29;99830.84;1768206;79;21887;-74
2022/12/14 09:01:29;;;;;;;16.23;11.53;;;;;;;-2.33;71.71;99828.36;1764526;79;21063;-75
2022/12/14 09:03:55;;;;;;;15.30;10.88;;;;;;;-2.30;71.36;99830.81;1770219;79;21064;-73
2022/12/14 09:06:25;;;;;;;14.43;10.93;;;;;;;-2.23;70.40;99833.43;1774454;79;21017;-74
2022/12/14 09:11:43;;;;;;;17.47;11.80;;;;;;;-2.11;70.53;99824.57;1867206;75;23327;-73
2022/12/14 09:14:11;;;;;;;14.87;11.05;;;;;;;-2.10;70.05;99851.00;1829890;77;20990;-74
2022/12/14 09:16:38;;;;;;;13.95;10.40;;;;;;;-2.04;69.03;99831.95;1800821;78;21605;-75
2022/12/14 09:19:05;;;;;;;10.72;8.40;;;;;;;-1.97;69.55;99833.77;1805341;78;20973;-75
2022/12/14 09:21:32;;;;;;;14.03;10.58;;;;;;;-2.04;67.80;99842.84;1848666;77;21607;-74
2022/12/14 09:23:58;;;;;;;13.68;9.63;;;;;;;-2.02;68.51;99839.69;1824469;77;21058;-74
2022/12/14 09:26:25;;;;;;;14.83;8.83;;;;;;;-2.05;67.89;99844.61;1818375;78;21342;-76
2022/12/14 09:28:53;;;;;;;12.98;10.00;;;;;;;-2.00;67.58;99849.55;1813128;78;21826;-75
2022/12/14 09:31:22;;;;;;;11.68;8.13;;;;;;;-1.94;67.74;99836.18;1823489;77;21024;-76
2022/12/14 09:33:49;;;;;;;12.40;8.88;;;;;;;-1.85;66.44;99836.97;1826590;78;21553;-77
2022/12/14 09:36:21;;;;;;;13.25;9.48;;;;;;;-1.69;67.28;99834.33;1824136;77;21041;-77
2022/12/14 09:38:53;;;;;;;13.75;9.70;;;;;;;-1.54;66.68;99845.64;1815252;78;21001;-77
2022/12/14 09:41:24;;;;;;;15.78;10.65;;;;;;;-1.39;66.48;99838.71;1766572;80;21692;-79
2022/12/14 09:43:55;;;;;;;16.20;11.65;;;;;;;-1.32;66.50;99832.66;1761456;80;21045;-78
2022/12/14 09:46:32;;;;;;;15.37;11.50;;;;;;;-1.09;66.38;99837.34;1766203;81;21002;-76
2022/12/14 09:49:01;;;;;;;14.43;9.20;;;;;;;-1.00;65.62;99847.70;1774532;80;21664;-78
2022/12/14 09:51:35;;;;;;;14.50;9.53;;;;;;;-0.86;65.03;99841.66;1755149;81;21009;-77
2022/12/14 09:54:05;;;;;;;12.80;8.68;;;;;;;-0.84;64.35;99842.40;1763572;79;21183;-79
2022/12/14 09:56:33;;;;;;;10.48;7.78;;;;;;;-0.75;62.06;99854.89;1773732;79;21550;-79
2022/12/14 09:59:00;;;;;;;12.28;8.60;;;;;;;-0.56;62.07;99852.00;1784074;79;21053;-75
2022/12/14 10:01:48;;;;;;;11.63;8.40;;;;;;;-0.41;60.51;99865.41;1789936;80;21029;-76
2022/12/14 10:04:51;;;;;;;13.43;8.98;;;;;;;0.03;59.96;99849.64;1779135;80;21064;-75
2022/12/14 10:07:42;;;;;;;12.63;9.25;;;;;;;0.33;60.66;99843.73;1751356;79;21652;-76
2022/12/14 10:10:45;;;;;;;11.35;9.20;;;;;;;0.92;60.44;99853.77;1738137;79;21124;-72
2022/12/14 10:13:37;;;;;;;11.73;8.25;;;;;;;1.24;58.95;99853.36;1809891;79;21615;-72
2022/12/14 10:16:46;;;;;;;9.73;7.83;;;;;;;1.50;58.34;99843.68;1758923;79;21033;-70
2022/12/14 10:19:42;;;;;;;14.10;8.40;;;;;;;2.03;56.13;99838.20;1811107;79;21046;-71
2022/12/14 10:22:15;;;;;;;12.07;8.25;;;;;;;2.20;55.93;99833.50;1766760;80;22131;-72
2022/12/14 10:24:48;;;;;;;8.75;6.62;;;;;;;2.20;55.93;99833.50;1748185;79;20986;-71
2022/12/14 10:27:24;;;;;;;8.95;6.90;;;;;;;2.00;55.36;99834.48;1756996;79;21078;-71
2022/12/14 10:30:01;;;;;;;9.18;6.53;;;;;;;1.69;55.81;99834.05;1766560;79;21501;-72
2022/12/14 10:32:35;;;;;;;10.00;7.37;;;;;;;1.42;55.86;99834.70;1803623;79;21073;-70
2022/12/14 10:35:34;;;;;;;10.35;7.37;;;;;;;1.55;57.00;99833.73;1810631;79;21770;-72
2022/12/14 10:38:12;;;;;;;9.40;7.42;;;;;;;2.00;55.82;99846.27;1755120;79;21073;-70
2022/12/14 10:40:43;;;;;;;12.23;8.50;;;;;;;2.32;54.53;99848.34;1759208;80;21079;-71
2022/12/14 10:43:51;;;;;;;12.03;8.88;;;;;;;2.47;54.52;99843.29;1741081;82;21058;-70
2022/12/14 10:46:42;;;;;;;10.88;8.60;;;;;;;2.05;53.70;99869.52;1757181;80;20985;-71
2022/12/14 10:49:17;;;;;;;12.95;9.30;;;;;;;1.14;54.96;99861.01;1767868;79;21240;-69
2022/12/14 10:51:51;;;;;;;13.78;9.48;;;;;;;0.56;56.99;99851.38;1782668;79;21061;-70
2022/12/14 10:54:29;;;;;;;12.28;10.18;;;;;;;0.16;58.03;99861.81;1780996;80;21079;-69
2022/12/14 10:56:56;;;;;;;14.70;10.38;;;;;;;0.14;59.32;99852.41;1770624;79;21038;-68
2022/12/14 10:59:27;;;;;;;13.35;10.03;;;;;;;0.16;59.00;99851.36;1741427;79;21025;-70
2022/12/14 11:02:07;;;;;;;13.85;9.10;;;;;;;0.19;59.28;99847.25;1751061;79;21096;-72
2022/12/14 11:04:41;;;;;;;13.43;10.80;;;;;;;0.10;59.41;99851.77;1791542;79;21478;-69
2022/12/14 11:07:10;;;;;;;12.33;9.85;;;;;;;0.16;59.87;99851.84;1747898;80;21097;-70
2022/12/14 11:09:38;;;;;;;13.22;10.20;;;;;;;0.26;59.51;99850.77;1762170;80;21504;-70
2022/12/14 11:12:16;;;;;;;12.35;8.48;;;;;;;0.28;59.02;99851.51;1767466;78;21576;-69
2022/12/14 11:15:05;;;;;;;12.33;8.40;;;;;;;0.17;58.02;99853.50;1773804;80;21134;-75
2022/12/14 11:17:40;;;;;;;11.50;8.80;;;;;;;0.17;57.42;99866.11;1781145;78;21048;-76
2022/12/14 11:20:21;;;;;;;11.48;8.70;;;;;;;0.17;58.61;99857.41;1792310;80;20981;-76
2022/12/14 11:23:06;;;;;;;14.30;10.78;;;;;;;0.11;59.23;99849.50;1779545;80;21004;-76
2022/12/14 11:25:42;;;;;;;14.38;9.33;;;;;;;0.08;58.42;99849.72;1794982;79;20977;-77
2022/12/14 11:28:42;;;;;;;18.82;8.25;;;;;;;0.08;58.55;99853.64;1800293;78;21101;-76
2022/12/14 11:31:15;;;;;;;22.07;8.53;;;;;;;0.01;58.00;99852.82;1785674;78;21025;-75
2022/12/14 11:33:48;;;;;;;15.85;9.08;;;;;;;-0.14;57.95;99851.53;1793971;78;21520;-76
2022/12/14 11:36:30;;;;;;;8.08;5.70;;;;;;;-0.28;58.48;99853.72;1775277;80;21066;-75
2022/12/14 11:38:59;;;;;;;5.70;4.03;;;;;;;-0.38;55.88;99847.41;1766885;80;21036;-78
2022/12/14 11:41:34;;;;;;;9.25;5.97;;;;;;;-0.53;55.09;99862.70;1764606;81;21503;-80
2022/12/14 11:44:18;;;;;;;6.60;4.40;;;;;;;-0.69;55.88;99858.90;1765811;81;21501;-76
2022/12/14 11:47:02;;;;;;;12.30;7.33;;;;;;;-0.83;53.87;99863.18;1733858;81;21048;-79
2022/12/14 11:49:40;;;;;;;13.13;7.65;;;;;;;-0.95;54.39;99869.59;1759215;80;21105;-75
2022/12/14 11:52:22;;;;;;;10.65;6.83;;;;;;;-1.17;55.27;99871.34;1756423;81;21072;-75
2022/12/14 11:54:57;;;;;;;10.08;6.42;;;;;;;-1.32;56.40;99875.67;1779316;78;21188;-79
2022/12/14 11:57:34;;;;;;;8.20;5.33;;;;;;;-1.42;57.91;99879.27;1795336;80;21090;-80
2022/12/14 12:00:05;;;;;;;12.28;6.60;;;;;;;-1.47;57.90;99886.06;1708604;82;21102;-76
2022/12/14 12:02:39;;;;;;;10.53;7.03;;;;;;;-1.47;58.89;99887.37;1773696;79;21077;-76
2022/12/14 12:05:10;;;;;;;14.95;8.65;;;;;;;-1.53;59.87;99886.39;1779171;80;21063;-75
2022/12/14 12:07:43;;;;;;;10.38;7.62;;;;;;;-1.53;59.44;99886.86;1794555;78;21165;-72
2022/12/14 12:10:35;;;;;;;11.45;7.95;;;;;;;-1.63;59.19;99892.59;1811126;78;21025;-72
2022/12/14 12:13:05;;;;;;;10.78;6.80;;;;;;;-1.68;59.61;99889.86;1736191;81;21080;-73
2022/12/14 12:15:38;;;;;;;9.45;5.95;;;;;;;-1.72;60.33;99889.22;1761209;81;21055;-76